Time;durP1;ratioP1;P1;durP2;ratioP2;P2;SDS_P1;SDS_P2;PMS_P1;PMS_P2;Temp;Humidity;BMP_temperature;BMP_pressure;BME280_temperature;BME280_humidity;BME280_pressure;Samples;Min_cycle;Max_cycle;Signal;HPM_P1;HPM_P2
2023/07/05 00:02:11;;;;;;;10.02;8.93;;;;;;;22.17;100.00;-18347.59;5075632;28;20194;-64
2023/07/05 00:04:38;;;;;;;9.80;8.98;;;;;;;22.18;100.00;-18345.94;5075354;28;20199;-65
2023/07/05 00:07:06;;;;;;;9.27;8.73;;;;;;;22.21;100.00;-18346.66;5075771;28;20185;-64
2023/07/05 00:09:33;;;;;;;9.30;8.73;;;;;;;22.17;100.00;-18345.72;5075644;28;20670;-64
2023/07/05 00:12:00;;;;;;;8.85;8.07;;;;;;;22.05;100.00;-18342.84;5075429;28;20184;-64
2023/07/05 00:14:29;;;;;;;9.60;9.00;;;;;;;21.85;100.00;-18338.09;5075567;28;20622;-64
2023/07/05 00:16:56;;;;;;;8.93;8.38;;;;;;;22.02;100.00;-18344.03;5075294;28;20185;-65
2023/07/05 00:19:25;;;;;;;9.02;8.40;;;;;;;22.02;100.00;-18344.03;5075657;28;20184;-65
2023/07/05 00:21:52;;;;;;;9.85;9.35;;;;;;;22.03;100.00;-18344.28;5075238;28;20191;-64
2023/07/05 00:24:20;;;;;;;10.07;9.32;;;;;;;22.01;100.00;-18343.81;5075160;28;20184;-64
2023/07/05 00:26:50;;;;;;;9.93;9.10;;;;;;;21.88;100.00;-18340.81;5074957;28;20185;-65
2023/07/05 00:29:17;;;;;;;9.80;8.80;;;;;;;21.74;100.00;-18337.38;5075022;28;20212;-64
2023/07/05 00:31:44;;;;;;;10.95;9.10;;;;;;;21.62;100.00;-18334.53;5075284;28;20177;-64
2023/07/05 00:34:11;;;;;;;9.82;9.13;;;;;;;21.48;100.00;-18331.19;5075013;28;20698;-64
2023/07/05 00:36:38;;;;;;;10.88;10.18;;;;;;;21.66;100.00;-18335.47;5074791;28;20188;-64
2023/07/05 00:39:04;;;;;;;10.82;10.13;;;;;;;21.49;100.00;-18331.41;5074862;28;20189;-64
2023/07/05 00:41:33;;;;;;;10.65;10.05;;;;;;;21.55;100.00;-18332.84;5074730;28;20185;-64
2023/07/05 00:44:00;;;;;;;10.43;9.35;;;;;;;21.32;100.00;-18327.63;5075080;28;20219;-65
2023/07/05 00:46:30;;;;;;;9.85;9.15;;;;;;;21.55;100.00;-18332.97;5075397;28;20201;-65
2023/07/05 00:49:02;;;;;;;11.20;10.20;;;;;;;21.72;100.00;-18336.91;5074759;28;20590;-65
2023/07/05 00:51:32;;;;;;;10.15;9.68;;;;;;;21.69;100.00;-18336.19;5074401;28;20189;-64
2023/07/05 00:54:04;;;;;;;11.10;10.10;;;;;;;21.52;100.00;-18332.25;5075132;28;20185;-64
2023/07/05 00:56:39;;;;;;;10.95;10.10;;;;;;;21.64;100.00;-18335.00;5074579;28;20224;-65
2023/07/05 00:59:09;;;;;;;10.57;9.57;;;;;;;21.59;100.00;-18333.94;5074330;28;20192;-64
2023/07/05 01:01:36;;;;;;;10.80;9.83;;;;;;;21.58;100.00;-18333.56;5074474;28;20189;-65
2023/07/05 01:04:04;;;;;;;14.13;10.77;;;;;;;21.54;100.00;-18332.63;5074799;28;20558;-65
2023/07/05 01:06:31;;;;;;;11.18;10.50;;;;;;;21.49;100.00;-18331.41;5074808;28;20185;-66
2023/07/05 01:08:58;;;;;;;9.27;8.77;;;;;;;21.63;100.00;-18334.75;5074602;28;20623;-64
2023/07/05 01:11:33;;;;;;;11.30;10.30;;;;;;;20.97;100.00;-18319.28;5073707;28;20558;-66
2023/07/05 01:14:11;;;;;;;9.80;9.30;;;;;;;21.73;100.00;-18337.25;5074277;28;20245;-65
2023/07/05 01:16:54;;;;;;;9.15;8.30;;;;;;;21.90;100.00;-18341.19;5074148;28;20192;-64
2023/07/05 01:19:50;;;;;;;7.13;6.72;;;;;;;21.72;100.00;-18336.91;5074068;28;20268;-64
2023/07/05 01:22:29;;;;;;;7.38;6.80;;;;;;;21.87;100.00;-18340.47;5073971;28;20195;-64
2023/07/05 01:25:19;;;;;;;7.15;6.68;;;;;;;21.98;100.00;-18342.97;5074084;28;20184;-64
2023/07/05 01:28:05;;;;;;;6.28;6.07;;;;;;;22.02;100.00;-18344.03;5074622;28;20693;-64
2023/07/05 01:31:05;;;;;;;5.93;5.68;;;;;;;22.18;100.00;-18347.72;5073776;28;20215;-64
2023/07/05 01:33:38;;;;;;;4.32;4.22;;;;;;;22.15;100.00;-18347.00;5074113;28;20189;-65
2023/07/05 01:36:08;;;;;;;4.07;3.97;;;;;;;22.23;100.00;-18348.91;5073935;28;20675;-65
2023/07/05 01:38:35;;;;;;;3.90;3.70;;;;;;;22.17;100.00;-18347.47;5074056;28;20189;-65
2023/07/05 01:41:05;;;;;;;4.88;4.60;;;;;;;22.18;100.00;-18347.84;5074142;28;20642;-66
2023/07/05 01:43:35;;;;;;;4.65;4.35;;;;;;;22.31;100.00;-18350.81;5073608;28;20235;-65
2023/07/05 01:46:23;;;;;;;4.43;4.32;;;;;;;22.28;100.00;-18350.22;5073727;28;20255;-64
2023/07/05 01:49:04;;;;;;;5.07;4.70;;;;;;;22.22;100.00;-18348.78;5073456;28;20192;-65
2023/07/05 01:51:35;;;;;;;4.32;4.22;;;;;;;22.07;100.00;-18345.09;5073604;28;20215;-64
2023/07/05 01:54:09;;;;;;;5.55;5.35;;;;;;;22.15;100.00;-18347.13;5073752;28;20188;-64
2023/07/05 01:56:48;;;;;;;5.53;5.20;;;;;;;22.14;100.00;-18346.88;5073607;28;20215;-65
2023/07/05 01:59:18;;;;;;;5.90;5.50;;;;;;;22.09;100.00;-18345.69;5073323;28;20181;-64
2023/07/05 02:01:47;;;;;;;7.25;7.00;;;;;;;22.10;100.00;-18345.81;5073801;28;20664;-63
2023/07/05 02:04:16;;;;;;;6.35;6.15;;;;;;;22.03;100.00;-18344.16;5073222;28;20195;-64
2023/07/05 02:06:44;;;;;;;7.57;7.25;;;;;;;22.02;100.00;-18344.03;5073320;28;20235;-64
2023/07/05 02:09:11;;;;;;;7.93;7.40;;;;;;;21.95;100.00;-18342.38;5073858;28;20547;-65
2023/07/05 02:11:38;;;;;;;8.07;7.57;;;;;;;21.96;100.00;-18342.59;5073092;28;20221;-64
2023/07/05 02:14:05;;;;;;;7.20;6.97;;;;;;;21.94;100.00;-18342.00;5073355;28;20609;-65
2023/07/05 02:16:32;;;;;;;7.80;7.22;;;;;;;21.93;100.00;-18341.78;5073572;28;20587;-64
2023/07/05 02:18:59;;;;;;;7.70;7.22;;;;;;;21.99;100.00;-18343.19;5073106;28;20188;-64
2023/07/05 02:21:27;;;;;;;7.63;7.22;;;;;;;22.02;100.00;-18343.91;5072653;28;20192;-64
2023/07/05 02:23:54;;;;;;;6.13;5.80;;;;;;;22.11;100.00;-18346.06;5071863;28;20192;-64
2023/07/05 02:26:21;;;;;;;6.45;6.13;;;;;;;22.16;100.00;-18347.38;5072440;28;20220;-66
2023/07/05 02:28:48;;;;;;;6.20;5.68;;;;;;;22.23;100.00;-18349.03;5072975;28;20633;-65
2023/07/05 02:31:16;;;;;;;5.47;5.28;;;;;;;22.29;100.00;-18350.44;5072781;28;20223;-66
2023/07/05 02:33:44;;;;;;;5.43;5.13;;;;;;;22.33;100.00;-18351.28;5072587;28;20214;-65
2023/07/05 02:36:12;;;;;;;5.00;4.90;;;;;;;22.33;100.00;-18351.28;5072447;28;20238;-64
2023/07/05 02:38:41;;;;;;;5.20;5.00;;;;;;;22.44;100.00;-18353.78;5072784;28;20184;-65
2023/07/05 02:41:08;;;;;;;5.63;5.22;;;;;;;22.43;100.00;-18353.66;5072749;28;20197;-64
2023/07/05 02:43:36;;;;;;;4.60;4.50;;;;;;;22.47;100.00;-18354.50;5072835;28;20201;-65
2023/07/05 02:46:05;;;;;;;5.22;4.90;;;;;;;22.45;100.00;-18354.13;5072011;28;20235;-65
2023/07/05 02:48:32;;;;;;;4.68;4.47;;;;;;;22.45;100.00;-18354.03;5072138;28;20195;-64
2023/07/05 02:50:59;;;;;;;4.80;4.30;;;;;;;22.41;100.00;-18353.06;5072179;28;20201;-64
2023/07/05 02:53:25;;;;;;;5.00;4.80;;;;;;;22.48;100.00;-18354.72;5072696;28;20181;-65
2023/07/05 02:55:54;;;;;;;4.90;4.60;;;;;;;22.38;100.00;-18352.34;5072116;28;20187;-64
2023/07/05 02:58:20;;;;;;;6.40;4.60;;;;;;;22.48;100.00;-18354.84;5072430;28;20574;-65
2023/07/05 03:00:48;;;;;;;6.30;4.80;;;;;;;22.55;100.00;-18356.50;5072025;28;20179;-64
2023/07/05 03:03:14;;;;;;;5.13;4.93;;;;;;;22.54;100.00;-18356.16;5072404;28;20204;-65
2023/07/05 03:05:41;;;;;;;5.65;5.22;;;;;;;22.47;100.00;-18354.50;5072677;28;20269;-65
2023/07/05 03:08:09;;;;;;;5.55;5.00;;;;;;;22.56;100.00;-18356.63;5071908;28;20213;-65
2023/07/05 03:10:39;;;;;;;5.95;5.53;;;;;;;22.40;100.00;-18352.84;5071814;28;20305;-66
2023/07/05 03:13:07;;;;;;;6.60;5.47;;;;;;;22.63;100.00;-18358.28;5072188;28;20266;-64
2023/07/05 03:15:34;;;;;;;8.43;5.65;;;;;;;22.66;100.00;-18359.13;5071835;28;20200;-64
2023/07/05 03:18:01;;;;;;;6.13;5.78;;;;;;;22.67;100.00;-18359.38;5072230;28;20550;-65
2023/07/05 03:20:28;;;;;;;5.88;5.55;;;;;;;23.13;100.00;-18370.06;5072360;28;20658;-65
2023/07/05 03:22:55;;;;;;;7.93;5.22;;;;;;;24.00;100.00;-18390.59;5072561;28;20185;-64
2023/07/05 03:25:22;;;;;;;5.20;4.97;;;;;;;24.59;100.00;-11897.47;5071693;28;20192;-65
2023/07/05 03:27:49;;;;;;;5.28;4.97;;;;;;;24.81;100.00;-2115.13;5072424;28;20189;-65
2023/07/05 03:30:17;;;;;;;5.22;5.00;;;;;;;24.78;100.00;-4074.50;5071642;28;20216;-65
2023/07/05 03:32:44;;;;;;;6.75;4.95;;;;;;;24.37;100.00;-2442.59;5072174;28;20181;-65
2023/07/05 03:35:11;;;;;;;5.03;4.80;;;;;;;24.47;100.00;-6683.56;5071293;28;20197;-65
2023/07/05 03:37:40;;;;;;;7.57;6.68;;;;;;;24.47;100.00;-8639.19;5071562;28;20192;-66
2023/07/05 03:40:08;;;;;;;5.35;4.95;;;;;;;24.48;100.00;-6357.56;5072011;28;20208;-65
2023/07/05 03:42:36;;;;;;;10.68;5.90;;;;;;;24.66;100.00;-6684.50;5071761;28;20528;-65
2023/07/05 03:45:03;;;;;;;6.13;5.57;;;;;;;24.76;100.00;-4727.28;5071275;28;20235;-65
2023/07/05 03:47:32;;;;;;;6.10;5.00;;;;;;;24.78;100.00;-1135.09;5071718;28;20187;-63
2023/07/05 03:49:59;;;;;;;6.72;6.22;;;;;;;25.05;100.00;1809.19;5071972;28;20272;-65
2023/07/05 03:52:26;;;;;;;6.00;5.30;;;;;;;25.26;100.00;6724.00;5071476;28;20204;-65
2023/07/05 03:54:53;;;;;;;5.78;5.38;;;;;;;25.21;100.00;6723.25;5064490;28;20200;-65
2023/07/05 03:57:20;;;;;;;8.82;5.93;;;;;;;25.29;100.00;10988.56;5070189;28;20192;-65
2023/07/05 03:59:47;;;;;;;5.90;5.40;;;;;;;25.48;100.00;11649.84;5051789;28;20694;-66
2023/07/05 04:02:14;;;;;;;15.82;6.43;;;;;;;25.65;100.00;14940.25;5051482;28;20220;-66
2023/07/05 04:04:44;;;;;;;10.13;5.93;;;;;;;25.72;100.00;20207.88;5051616;28;20190;-65
2023/07/05 04:07:11;;;;;;;5.05;4.75;;;;;;;25.88;100.00;24499.53;5051629;28;20224;-65
2023/07/05 04:09:38;;;;;;;6.80;5.80;;;;;;;26.19;100.00;35091.06;5051492;28;20190;-65
2023/07/05 04:12:05;;;;;;;8.65;5.32;;;;;;;26.26;100.00;42719.41;5051150;28;20224;-65
2023/07/05 04:14:32;;;;;;;10.57;5.90;;;;;;;26.44;100.00;43728.88;5051194;28;20189;-66
2023/07/05 04:16:59;;;;;;;7.78;5.68;;;;;;;26.54;100.00;52382.13;5051394;28;20193;-65
2023/07/05 04:19:26;;;;;;;9.35;6.70;;;;;;;26.65;100.00;57725.16;5051506;28;20544;-65
2023/07/05 04:21:55;;;;;;;6.28;5.85;;;;;;;26.71;100.00;69761.34;5051264;28;20243;-65
2023/07/05 04:24:22;;;;;;;9.27;5.57;;;;;;;26.83;100.00;64756.28;5051335;28;20190;-65
2023/07/05 04:26:48;;;;;;;11.30;6.30;;;;;;;26.63;100.00;64065.81;5051347;28;20178;-66
2023/07/05 04:29:15;;;;;;;7.05;6.15;;;;;;;26.77;100.00;70772.41;5050965;28;20196;-66
2023/07/05 04:31:42;;;;;;;9.60;6.10;;;;;;;26.97;100.00;76160.09;5051400;28;20209;-66
2023/07/05 04:34:09;;;;;;;5.82;5.38;;;;;;;26.96;100.00;77836.78;5051274;28;20189;-65
2023/07/05 04:36:36;;;;;;;6.03;5.72;;;;;;;27.00;100.00;79521.66;5051081;28;20204;-66
2023/07/05 04:39:04;;;;;;;7.18;6.55;;;;;;;27.13;100.00;85590.72;5051112;28;20197;-66
2023/07/05 04:41:31;;;;;;;7.70;6.40;;;;;;;27.03;100.00;70803.13;5050953;28;20185;-65
2023/07/05 04:43:58;;;;;;;7.85;5.20;;;;;;;27.40;100.00;79574.19;5050930;28;20567;-66
2023/07/05 04:46:25;;;;;;;6.07;5.43;;;;;;;27.66;100.00;93759.84;5051233;28;20192;-66
2023/07/05 04:48:52;;;;;;;5.35;5.10;;;;;;;27.84;100.00;113429.81;5054936;28;20186;-65
2023/07/05 04:51:19;;;;;;;5.35;4.90;;;;;;;27.81;100.00;132151.75;5054869;28;20294;-65
2023/07/05 04:53:46;;;;;;;9.38;5.85;;;;;;;28.09;100.00;124025.59;5054662;28;20193;-66
2023/07/05 04:56:16;;;;;;;4.97;4.78;;;;;;;27.69;100.00;127692.72;5055904;28;20236;-65
2023/07/05 04:58:44;;;;;;;5.30;4.90;;;;;;;27.54;100.00;105914.63;5056060;28;20559;-66
2023/07/05 05:01:13;;;;;;;5.55;5.15;;;;;;;27.82;100.00;104947.06;5056474;28;20208;-66
2023/07/05 05:03:40;;;;;;;5.80;5.50;;;;;;;27.91;100.00;117181.31;5056630;28;20181;-65
2023/07/05 05:06:07;;;;;;;6.20;5.57;;;;;;;27.65;100.00;101870.22;5055272;28;20185;-65
2023/07/05 05:08:34;;;;;;;6.32;4.97;;;;;;;27.76;100.00;103580.84;5055936;28;20189;-65
2023/07/05 05:11:02;;;;;;;5.60;5.18;;;;;;;27.51;100.00;93736.13;5055905;28;20205;-63
2023/07/05 05:13:32;;;;;;;5.32;4.93;;;;;;;27.87;100.00;110380.16;5055945;28;20602;-63
2023/07/05 05:16:00;;;;;;;6.15;5.63;;;;;;;28.00;100.00;131853.41;5056195;28;20628;-63
2023/07/05 05:18:29;;;;;;;10.77;6.72;;;;;;;28.10;100.00;151022.69;5055859;28;20189;-63
2023/07/05 05:20:56;;;;;;;6.40;5.90;;;;;;;27.87;100.00;153051.50;5055688;28;20189;-63
2023/07/05 05:23:23;;;;;;;6.75;5.38;;;;;;;27.74;100.00;153019.53;5054882;28;20204;-62
2023/07/05 05:25:51;;;;;;;7.43;6.13;;;;;;;27.68;100.00;119518.16;5054915;28;20555;-63
2023/07/05 05:28:18;;;;;;;9.55;5.20;;;;;;;27.69;100.00;134858.13;5054900;28;20558;-63
2023/07/05 05:30:47;;;;;;;9.85;6.05;;;;;;;27.66;100.00;134510.91;5054479;28;20209;-60
2023/07/05 05:33:15;;;;;;;6.65;5.57;;;;;;;27.64;100.00;134505.25;5054353;28;20189;-62
2023/07/05 05:35:47;;;;;;;24.60;7.40;;;;;;;27.71;100.00;144099.47;5053816;28;20186;-59
2023/07/05 05:38:17;;;;;;;7.90;5.85;;;;;;;27.62;100.00;152244.53;5054192;28;20181;-63
2023/07/05 05:40:44;;;;;;;14.25;10.63;;;;;;;27.71;100.00;153011.81;5054967;28;20189;-63
2023/07/05 05:43:11;;;;;;;13.13;6.10;;;;;;;27.60;100.00;152984.97;5052536;28;20704;-61
2023/07/05 05:45:38;;;;;;;8.18;5.20;;;;;;;27.44;100.00;152943.97;5053934;28;20320;-66
2023/07/05 05:48:06;;;;;;;17.90;7.07;;;;;;;27.54;100.00;152968.34;5053685;28;20598;-66
2023/07/05 05:50:33;;;;;;;7.32;5.72;;;;;;;27.46;100.00;143353.28;5053411;28;20196;-66
2023/07/05 05:53:00;;;;;;;8.05;5.65;;;;;;;27.49;100.00;146652.72;5053483;28;20201;-67
2023/07/05 05:55:27;;;;;;;6.95;5.70;;;;;;;27.60;100.00;136888.84;5053786;28;20200;-66
2023/07/05 05:57:54;;;;;;;17.73;6.05;;;;;;;27.83;100.00;153041.28;5051481;28;20267;-65
2023/07/05 06:00:22;;;;;;;6.10;5.20;;;;;;;27.98;100.00;153080.94;5053197;28;20642;-64
2023/07/05 06:02:49;;;;;;;7.18;4.72;;;;;;;28.06;100.00;153101.41;5052527;28;20205;-65
2023/07/05 06:05:17;;;;;;;8.68;4.90;;;;;;;28.12;100.00;153115.56;5052981;28;20269;-64
2023/07/05 06:07:44;;;;;;;48.38;17.30;;;;;;;28.40;100.00;153187.22;5053162;28;20284;-64
2023/07/05 06:10:12;;;;;;;5.05;4.63;;;;;;;28.60;100.00;153238.41;5052875;28;20196;-64
2023/07/05 06:12:41;;;;;;;11.18;5.65;;;;;;;28.85;100.00;153299.97;5052562;28;20213;-63
2023/07/05 06:15:10;;;;;;;11.63;5.03;;;;;;;28.81;100.00;153289.72;5053042;28;20631;-63
2023/07/05 06:17:37;;;;;;;5.00;4.60;;;;;;;28.87;100.00;153305.06;5053197;28;20224;-65
2023/07/05 06:20:06;;;;;;;4.65;4.05;;;;;;;29.02;100.00;153344.78;5052355;28;20194;-66
2023/07/05 06:22:34;;;;;;;4.50;4.30;;;;;;;29.43;100.00;153448.56;5052416;28;20193;-64
2023/07/05 06:25:01;;;;;;;5.50;4.38;;;;;;;30.11;100.00;153620.31;5052489;28;20186;-64
2023/07/05 06:27:28;;;;;;;4.93;4.43;;;;;;;30.47;100.00;153710.09;5052494;28;20186;-64
2023/07/05 06:29:55;;;;;;;7.30;3.80;;;;;;;30.98;100.00;153840.81;5052392;28;20299;-65
2023/07/05 06:32:22;;;;;;;11.27;4.50;;;;;;;31.01;100.00;153847.31;5052631;28;20608;-65
2023/07/05 06:34:49;;;;;;;15.40;4.90;;;;;;;30.39;100.00;153692.06;5052523;28;20624;-65
2023/07/05 06:37:16;;;;;;;5.15;3.10;;;;;;;30.57;100.00;153735.69;5054638;28;20220;-62
2023/07/05 06:39:45;;;;;;;4.57;3.22;;;;;;;30.68;100.00;153763.94;5069527;28;20203;-64
2023/07/05 06:42:12;;;;;;;4.18;3.28;;;;;;;30.69;100.00;153767.75;5087082;28;20670;-64
2023/07/05 06:44:39;;;;;;;3.83;3.53;;;;;;;31.15;100.00;153883.19;5092202;28;20228;-63
2023/07/05 06:47:06;;;;;;;7.68;3.67;;;;;;;31.30;100.00;153921.66;5092321;28;20210;-64
2023/07/05 06:49:33;;;;;;;11.73;4.18;;;;;;;31.31;100.00;153922.97;5083694;28;20627;-63
2023/07/05 06:52:00;;;;;;;4.03;3.67;;;;;;;31.18;100.00;153892.19;5069152;28;20617;-63
2023/07/05 06:54:27;;;;;;;3.70;3.40;;;;;;;30.26;100.00;153657.44;5069946;28;20207;-65
2023/07/05 06:57:00;;;;;;;2.90;2.80;;;;;;;30.55;100.00;153731.88;5071923;28;20215;-63
2023/07/05 06:59:27;;;;;;;5.68;3.67;;;;;;;30.19;100.00;153640.81;5080905;28;20180;-66
2023/07/05 07:01:54;;;;;;;3.40;3.20;;;;;;;29.99;100.00;153589.56;5078586;28;20189;-64
2023/07/05 07:04:21;;;;;;;6.22;3.45;;;;;;;30.29;100.00;153666.47;5071469;28;20302;-65
2023/07/05 07:06:48;;;;;;;3.15;3.05;;;;;;;30.42;100.00;153697.22;5084477;28;20195;-63
2023/07/05 07:09:15;;;;;;;4.18;3.78;;;;;;;30.07;100.00;153610.06;5074607;28;20211;-61
2023/07/05 07:11:42;;;;;;;3.83;3.55;;;;;;;29.45;100.00;153452.44;5072455;28;20204;-68
2023/07/05 07:14:10;;;;;;;3.58;3.42;;;;;;;29.49;100.00;153463.91;5092545;28;20187;-66
2023/07/05 07:16:38;;;;;;;3.47;3.17;;;;;;;29.25;100.00;153402.41;5086762;28;20218;-66
2023/07/05 07:19:06;;;;;;;3.40;3.30;;;;;;;29.31;100.00;153417.84;5091884;28;20274;-63
2023/07/05 07:21:33;;;;;;;3.50;3.40;;;;;;;29.40;100.00;153440.91;5091068;28;20559;-60
2023/07/05 07:24:00;;;;;;;4.72;3.72;;;;;;;29.36;100.00;153429.38;5084529;28;20636;-65
2023/07/05 07:26:27;;;;;;;3.35;3.10;;;;;;;29.41;100.00;153442.13;5092333;28;20185;-64
2023/07/05 07:28:56;;;;;;;3.20;3.00;;;;;;;29.45;100.00;153453.69;5076792;28;20196;-65
2023/07/05 07:31:26;;;;;;;3.33;3.10;;;;;;;29.24;100.00;153399.81;5077030;28;20284;-67
2023/07/05 07:33:54;;;;;;;7.85;3.80;;;;;;;29.11;100.00;153366.50;5092713;28;20650;-67
2023/07/05 07:36:23;;;;;;;15.52;3.70;;;;;;;29.20;100.00;153389.59;5091842;28;20194;-65
2023/07/05 07:38:51;;;;;;;11.25;3.83;;;;;;;29.38;100.00;153434.47;5073348;28;20197;-65
2023/07/05 07:41:20;;;;;;;3.53;3.22;;;;;;;29.63;100.00;153497.22;5071780;28;20559;-64
2023/07/05 07:44:11;;;;;;;3.08;2.88;;;;;;;29.61;100.00;153492.13;5072144;28;20192;-68
2023/07/05 07:46:40;;;;;;;6.10;3.40;;;;;;;29.52;100.00;153469.06;5051665;28;20190;-62
2023/07/05 07:49:09;;;;;;;4.38;2.97;;;;;;;29.59;100.00;153488.28;5050447;28;20288;-62
2023/07/05 07:51:40;;;;;;;3.83;3.50;;;;;;;29.97;100.00;153583.13;5053114;28;20666;-59
2023/07/05 07:54:14;;;;;;;4.47;3.33;;;;;;;29.77;100.00;153534.41;5042851;28;20225;-60
2023/07/05 07:56:43;;;;;;;6.97;2.90;;;;;;;29.82;100.00;153545.94;5038713;28;20197;-66
2023/07/05 07:59:10;;;;;;;4.32;3.20;;;;;;;29.69;100.00;153512.63;5051023;28;20201;-64
2023/07/05 08:01:40;;;;;;;4.07;3.60;;;;;;;29.59;100.00;153487.00;5049870;28;20201;-64
2023/07/05 08:04:09;;;;;;;2.95;2.50;;;;;;;29.82;100.00;153547.22;5051504;28;20272;-65
2023/07/05 08:06:38;;;;;;;4.18;3.30;;;;;;;29.64;100.00;153501.09;5051388;28;20220;-65
2023/07/05 08:09:06;;;;;;;3.65;2.33;;;;;;;29.89;100.00;153563.91;5051375;28;20186;-64
2023/07/05 08:11:34;;;;;;;2.95;2.83;;;;;;;30.06;100.00;153607.47;5051229;28;20212;-63
2023/07/05 08:14:00;;;;;;;3.10;3.00;;;;;;;30.15;100.00;153629.28;5051035;28;20189;-64
2023/07/05 08:16:27;;;;;;;3.38;3.15;;;;;;;30.03;100.00;153598.53;5050942;28;20189;-61
2023/07/05 08:18:59;;;;;;;3.65;3.45;;;;;;;30.16;100.00;153633.13;5051243;28;20190;-66
2023/07/05 08:21:26;;;;;;;3.50;3.20;;;;;;;30.18;100.00;153636.94;5053179;28;20669;-65
2023/07/05 08:23:53;;;;;;;4.07;3.50;;;;;;;30.23;100.00;153649.78;5056547;28;20541;-66
2023/07/05 08:26:23;;;;;;;4.05;3.25;;;;;;;30.09;100.00;153613.88;5055867;28;20222;-65
2023/07/05 08:28:51;;;;;;;3.47;3.28;;;;;;;29.93;100.00;153575.44;5018847;28;21602;-62
2023/07/05 08:31:18;;;;;;;4.40;4.07;;;;;;;29.80;100.00;153542.09;5040335;28;20189;-61
2023/07/05 08:33:45;;;;;;;3.83;3.60;;;;;;;29.63;100.00;153498.53;5051092;28;20208;-63
2023/07/05 08:36:28;;;;;;;3.47;3.38;;;;;;;29.52;100.00;153469.06;5051342;28;20190;-64
2023/07/05 08:38:56;;;;;;;3.50;3.30;;;;;;;29.62;100.00;153494.72;5051327;28;20262;-61
2023/07/05 08:41:33;;;;;;;4.30;3.40;;;;;;;29.73;100.00;153522.88;5051041;28;20194;-61
2023/07/05 08:44:07;;;;;;;3.63;3.42;;;;;;;29.93;100.00;153574.16;5053969;28;20200;-60
2023/07/05 08:46:34;;;;;;;4.68;3.42;;;;;;;30.08;100.00;153612.63;5071247;28;20200;-62
2023/07/05 08:49:08;;;;;;;3.60;3.40;;;;;;;30.39;100.00;153690.78;5070355;28;20215;-64
2023/07/05 08:51:37;;;;;;;3.70;3.50;;;;;;;30.57;100.00;153737.00;5067440;28;20209;-62
2023/07/05 08:54:10;;;;;;;4.10;3.55;;;;;;;30.64;100.00;153754.91;5061672;28;20646;-61
2023/07/05 08:56:42;;;;;;;3.97;3.78;;;;;;;30.59;100.00;153740.84;5067402;28;20200;-60
2023/07/05 08:59:21;;;;;;;6.72;3.83;;;;;;;30.53;100.00;153726.72;5070306;28;20216;-64
2023/07/05 09:01:51;;;;;;;3.85;3.65;;;;;;;30.61;100.00;153745.94;5068962;28;20211;-61
2023/07/05 09:04:24;;;;;;;7.70;3.70;;;;;;;30.59;100.00;153740.84;5069658;28;20200;-61
2023/07/05 09:06:57;;;;;;;3.25;3.00;;;;;;;30.58;100.00;153738.28;5068831;28;20678;-61
2023/07/05 09:09:40;;;;;;;3.92;3.55;;;;;;;30.76;100.00;153784.44;5068630;28;20196;-61
2023/07/05 09:12:16;;;;;;;4.63;3.53;;;;;;;30.56;100.00;153733.13;5072035;28;20208;-59
2023/07/05 09:15:11;;;;;;;4.18;3.88;;;;;;;30.07;100.00;153610.06;5073323;28;20199;-59
2023/07/05 09:17:50;;;;;;;4.05;3.60;;;;;;;29.78;100.00;153535.69;5074203;28;20623;-61
2023/07/05 09:20:44;;;;;;;11.65;4.63;;;;;;;29.85;100.00;153553.63;5074234;28;20181;-61
2023/07/05 09:23:17;;;;;;;3.60;3.30;;;;;;;29.61;100.00;153493.41;5054275;28;20186;-61
2023/07/05 09:25:50;;;;;;;3.55;3.30;;;;;;;29.58;100.00;153484.47;5054579;28;20190;-60
2023/07/05 09:28:32;;;;;;;4.28;3.90;;;;;;;29.20;100.00;153388.28;5054661;28;20189;-62
2023/07/05 09:30:59;;;;;;;4.57;3.50;;;;;;;29.25;100.00;153401.09;5054111;28;20692;-61
2023/07/05 09:33:32;;;;;;;3.90;3.63;;;;;;;29.38;100.00;153434.47;5053005;28;20202;-59
2023/07/05 09:36:05;;;;;;;3.90;3.50;;;;;;;29.26;100.00;153404.97;5053863;28;20189;-61
2023/07/05 09:38:37;;;;;;;4.25;3.95;;;;;;;29.29;100.00;153412.69;5053717;28;20186;-60
2023/07/05 09:41:10;;;;;;;6.18;3.30;;;;;;;29.14;100.00;153374.25;5053459;28;20536;-62
2023/07/05 09:43:37;;;;;;;3.45;3.35;;;;;;;28.93;100.00;153321.72;5053326;28;20212;-61
2023/07/05 09:46:20;;;;;;;3.40;3.20;;;;;;;28.59;100.00;153235.91;5053126;28;20628;-60
2023/07/05 09:48:48;;;;;;;4.28;3.78;;;;;;;28.98;100.00;153334.50;5053356;28;20713;-61
2023/07/05 09:51:16;;;;;;;4.63;3.40;;;;;;;29.34;100.00;153425.50;5055787;28;20189;-62
2023/07/05 09:53:48;;;;;;;4.40;2.88;;;;;;;29.88;100.00;153562.63;5062231;28;20216;-61
2023/07/05 09:56:18;;;;;;;5.00;3.20;;;;;;;29.93;100.00;153575.44;5053189;28;20231;-63
2023/07/05 09:58:45;;;;;;;2.92;2.72;;;;;;;30.08;100.00;153612.63;5053032;28;20268;-63
2023/07/05 10:01:14;;;;;;;2.90;2.80;;;;;;;30.12;100.00;153621.59;5053385;28;20188;-61
2023/07/05 10:03:50;;;;;;;2.97;2.72;;;;;;;30.30;100.00;153669.00;5053078;28;20228;-61
2023/07/05 10:06:20;;;;;;;4.30;2.97;;;;;;;30.39;100.00;153690.78;5052917;28;20181;-61
2023/07/05 10:08:52;;;;;;;3.25;2.70;;;;;;;30.16;100.00;153633.13;5053221;28;20216;-61
2023/07/05 10:11:25;;;;;;;2.95;2.85;;;;;;;30.16;100.00;153631.84;5052939;28;20190;-63
2023/07/05 10:14:13;;;;;;;3.10;2.90;;;;;;;29.83;100.00;153548.50;5053531;28;20213;-65
2023/07/05 10:16:49;;;;;;;5.90;3.30;;;;;;;29.43;100.00;153447.28;5053586;28;20209;-61
2023/07/05 10:19:28;;;;;;;3.40;3.30;;;;;;;29.46;100.00;153456.25;5052630;28;20185;-59
2023/07/05 10:22:02;;;;;;;3.15;2.95;;;;;;;29.29;100.00;153411.41;5052789;28;20181;-61
2023/07/05 10:24:33;;;;;;;2.95;2.65;;;;;;;29.36;100.00;153430.66;5052534;28;20203;-61
2023/07/05 10:27:09;;;;;;;3.10;2.80;;;;;;;29.33;100.00;153422.94;5052842;28;20189;-61
2023/07/05 10:29:36;;;;;;;5.85;3.28;;;;;;;29.06;100.00;153353.75;5052713;28;20598;-61
2023/07/05 10:32:04;;;;;;;6.90;3.10;;;;;;;29.19;100.00;153387.06;5052664;28;20254;-62
2023/07/05 10:34:31;;;;;;;3.30;3.00;;;;;;;29.19;100.00;153387.06;5053101;28;20196;-61
2023/07/05 10:36:58;;;;;;;3.13;2.92;;;;;;;29.16;100.00;153378.03;5052329;28;20256;-61
2023/07/05 10:39:27;;;;;;;5.95;3.50;;;;;;;29.26;100.00;153404.97;5052295;28;20196;-61
2023/07/05 10:42:00;;;;;;;2.95;2.70;;;;;;;29.16;100.00;153379.34;5052607;28;20189;-61
2023/07/05 10:44:32;;;;;;;2.72;2.63;;;;;;;28.92;100.00;153317.88;5058593;28;20229;-62
2023/07/05 10:47:01;;;;;;;2.33;2.22;;;;;;;28.77;100.00;153280.72;5052800;28;20543;-61
2023/07/05 10:49:30;;;;;;;3.63;2.70;;;;;;;28.97;100.00;153330.69;5072211;28;20220;-61
2023/07/05 10:52:02;;;;;;;2.80;2.70;;;;;;;28.77;100.00;153279.47;5070684;28;20203;-60
2023/07/05 10:54:37;;;;;;;12.55;10.50;;;;;;;28.54;100.00;153221.78;5071549;28;20189;-66
2023/07/05 10:57:14;;;;;;;4.03;3.40;;;;;;;28.52;100.00;153217.94;5064665;28;20246;-61
2023/07/05 10:59:44;;;;;;;3.88;3.05;;;;;;;28.60;100.00;153237.19;5052962;28;20591;-61
2023/07/05 11:02:34;;;;;;;2.90;2.70;;;;;;;28.40;100.00;153187.22;5055114;28;20186;-60
2023/07/05 11:05:03;;;;;;;2.55;2.45;;;;;;;28.53;100.00;153219.22;5061854;28;20544;-61
2023/07/05 11:07:33;;;;;;;3.25;3.05;;;;;;;28.40;100.00;153185.94;5071663;28;20189;-63
2023/07/05 11:10:06;;;;;;;3.13;2.90;;;;;;;28.37;100.00;153178.25;5071733;28;20192;-59
2023/07/05 11:12:34;;;;;;;3.13;3.03;;;;;;;28.44;100.00;153196.16;5071388;28;20224;-59
2023/07/05 11:15:04;;;;;;;3.08;2.90;;;;;;;28.28;100.00;153156.50;5071887;28;20547;-59
2023/07/05 11:17:36;;;;;;;4.68;3.05;;;;;;;28.47;100.00;153205.19;5072085;28;20669;-60
2023/07/05 11:20:24;;;;;;;3.30;3.08;;;;;;;28.44;100.00;153197.47;5071093;28;20275;-60
2023/07/05 11:22:51;;;;;;;3.15;3.00;;;;;;;28.38;100.00;153182.13;5062562;28;20266;-59
2023/07/05 11:25:19;;;;;;;3.05;2.65;;;;;;;28.29;100.00;153159.06;5070197;28;20204;-61
2023/07/05 11:28:27;;;;;;;3.05;2.83;;;;;;;28.39;100.00;153183.41;5069113;28;20212;-60
2023/07/05 11:30:55;;;;;;;2.67;2.55;;;;;;;28.38;100.00;153182.13;5062263;28;20285;-60